createdAt,value
2023-02-26T00:00:11.905Z,989.52
2023-02-26T00:01:09.821Z,989.50
2023-02-26T00:02:05.919Z,989.50
2023-02-26T00:03:04.285Z,989.54
2023-02-26T00:04:05.369Z,989.55
2023-02-26T00:05:04.223Z,989.54
2023-02-26T00:06:04.217Z,989.54
2023-02-26T00:07:04.212Z,989.58
2023-02-26T00:08:04.217Z,989.59
2023-02-26T00:09:04.204Z,989.60
2023-02-26T00:10:04.192Z,989.64
2023-02-26T00:11:04.185Z,989.62
2023-02-26T00:12:04.177Z,989.64
2023-02-26T00:13:04.168Z,989.65
2023-02-26T00:14:04.194Z,989.58
2023-02-26T00:15:04.158Z,989.60
2023-02-26T00:16:04.139Z,989.66
2023-02-26T00:17:04.203Z,989.70
2023-02-26T00:18:04.130Z,989.63
2023-02-26T00:19:04.117Z,989.72
2023-02-26T00:20:04.111Z,989.71
2023-02-26T00:21:04.100Z,989.70
2023-02-26T00:22:04.095Z,989.73
2023-02-26T00:23:04.102Z,989.72
2023-02-26T00:24:55.751Z,989.73
2023-02-26T00:25:55.736Z,989.69
2023-02-26T00:26:55.714Z,989.70
2023-02-26T00:27:55.708Z,989.72
2023-02-26T00:28:55.712Z,989.74
2023-02-26T00:29:55.712Z,989.72
2023-02-26T00:30:56.840Z,989.76
2023-02-26T00:31:56.933Z,989.78
2023-02-26T00:32:56.759Z,989.76
2023-02-26T00:33:56.773Z,989.76
2023-02-26T00:34:56.749Z,989.84
2023-02-26T00:35:56.752Z,989.79
2023-02-26T00:36:56.733Z,989.86
2023-02-26T00:37:56.719Z,989.85
2023-02-26T00:38:56.722Z,989.81
2023-02-26T00:39:56.743Z,989.83
2023-02-26T00:40:56.708Z,989.88
2023-02-26T00:41:56.708Z,989.86
2023-02-26T00:42:56.678Z,989.90
2023-02-26T00:43:56.690Z,989.85
2023-02-26T00:44:56.688Z,989.91
2023-02-26T00:45:56.668Z,989.90
2023-02-26T00:46:56.657Z,989.88
2023-02-26T00:47:56.635Z,989.83
2023-02-26T00:48:56.643Z,989.79
2023-02-26T00:49:57.465Z,989.76
2023-02-26T00:50:56.632Z,989.77
2023-02-26T00:51:56.602Z,989.80
2023-02-26T00:52:56.866Z,989.80
2023-02-26T00:53:56.594Z,989.79
2023-02-26T00:54:56.591Z,989.78
2023-02-26T00:55:56.573Z,989.87
2023-02-26T00:56:56.565Z,989.84
2023-02-26T00:57:56.593Z,989.82
2023-02-26T00:58:56.554Z,989.93
2023-02-26T00:59:56.554Z,989.92
2023-02-26T01:00:56.540Z,989.91
2023-02-26T01:01:56.552Z,989.99
2023-02-26T01:02:56.515Z,989.97
2023-02-26T01:03:56.546Z,989.96
2023-02-26T01:04:56.490Z,989.96
2023-02-26T01:05:56.483Z,989.95
2023-02-26T01:06:56.494Z,989.97
2023-02-26T01:07:58.469Z,989.95
2023-02-26T01:08:56.463Z,990.00
2023-02-26T01:09:56.459Z,989.92
2023-02-26T01:10:56.451Z,989.95
2023-02-26T01:11:56.441Z,989.98
2023-02-26T01:12:56.549Z,990.01
2023-02-26T01:13:56.430Z,989.96
2023-02-26T01:14:56.428Z,990.00
2023-02-26T01:15:56.423Z,990.01
2023-02-26T01:16:56.395Z,989.96
2023-02-26T01:17:56.391Z,990.00
2023-02-26T01:18:56.407Z,989.99
2023-02-26T01:19:56.379Z,990.01
2023-02-26T01:20:56.412Z,989.97
2023-02-26T01:21:56.359Z,990.00
2023-02-26T01:22:57.949Z,990.02
2023-02-26T01:23:59.265Z,989.99
2023-02-26T01:24:57.950Z,989.97
2023-02-26T01:25:57.331Z,989.97
2023-02-26T01:26:56.324Z,989.94
2023-02-26T01:27:56.318Z,989.95
2023-02-26T01:28:56.311Z,989.99
2023-02-26T01:29:56.300Z,989.94
2023-02-26T01:30:56.415Z,990.03
2023-02-26T01:31:56.446Z,990.05
2023-02-26T01:32:56.295Z,990.01
2023-02-26T01:33:56.265Z,990.06
2023-02-26T01:34:56.263Z,990.05
2023-02-26T01:35:56.242Z,990.06
2023-02-26T01:36:56.234Z,990.01
2023-02-26T01:37:56.244Z,990.16
2023-02-26T01:38:58.011Z,990.12
2023-02-26T01:39:56.220Z,990.12
2023-02-26T01:40:56.209Z,990.08
2023-02-26T01:41:56.218Z,990.12
2023-02-26T01:42:56.205Z,990.08
2023-02-26T01:43:56.978Z,990.11
2023-02-26T01:44:56.178Z,990.05
2023-02-26T01:45:56.169Z,990.07
2023-02-26T01:46:56.215Z,990.17
2023-02-26T01:47:56.155Z,990.14
2023-02-26T01:48:56.188Z,990.16
2023-02-26T01:49:56.186Z,990.13
2023-02-26T01:50:56.978Z,990.13
2023-02-26T01:51:56.138Z,990.11
2023-02-26T01:52:56.140Z,990.15
2023-02-26T01:53:56.129Z,990.15
2023-02-26T01:54:56.107Z,990.17
2023-02-26T01:55:56.102Z,990.19
2023-02-26T01:56:56.088Z,990.14
2023-02-26T01:58:43.473Z,990.23
2023-02-26T01:59:43.472Z,990.22
2023-02-26T02:00:43.475Z,990.27
2023-02-26T02:01:44.567Z,990.23
2023-02-26T02:02:44.659Z,990.26
2023-02-26T02:03:44.584Z,990.27
2023-02-26T02:04:44.527Z,990.31
2023-02-26T02:05:44.518Z,990.37
2023-02-26T02:06:44.528Z,990.37
2023-02-26T02:07:44.503Z,990.34
2023-02-26T02:08:44.496Z,990.30
2023-02-26T02:09:44.491Z,990.35
2023-02-26T02:10:44.475Z,990.33
2023-02-26T02:11:44.473Z,990.25
2023-02-26T02:12:44.463Z,990.25
2023-02-26T02:13:44.460Z,990.29
2023-02-26T02:14:44.451Z,990.27
2023-02-26T02:15:44.452Z,990.28
2023-02-26T02:16:44.559Z,990.31
2023-02-26T02:17:44.446Z,990.30
2023-02-26T02:18:44.411Z,990.27
2023-02-26T02:19:44.404Z,990.30
2023-02-26T02:20:44.394Z,990.34
2023-02-26T02:21:45.354Z,990.31
2023-02-26T02:22:44.381Z,990.31
2023-02-26T02:23:44.920Z,990.35
2023-02-26T02:24:44.365Z,990.32
2023-02-26T02:25:44.356Z,990.34
2023-02-26T02:26:44.364Z,990.38
2023-02-26T02:27:44.340Z,990.42
2023-02-26T02:28:44.342Z,990.32
2023-02-26T02:29:44.331Z,990.47
2023-02-26T02:30:44.316Z,990.38
2023-02-26T02:31:44.509Z,990.46
2023-02-26T02:32:44.370Z,990.49
2023-02-26T02:33:44.293Z,990.50
2023-02-26T02:34:44.296Z,990.47
2023-02-26T02:35:44.281Z,990.51
2023-02-26T02:36:44.287Z,990.40
2023-02-26T02:37:44.271Z,990.55
2023-02-26T02:38:44.259Z,990.54
2023-02-26T02:39:44.254Z,990.56
2023-02-26T02:40:44.247Z,990.54
2023-02-26T02:41:44.232Z,990.54
2023-02-26T02:42:44.223Z,990.55
2023-02-26T02:43:44.220Z,990.59
2023-02-26T02:44:44.248Z,990.60
2023-02-26T02:45:44.277Z,990.58
2023-02-26T02:46:44.227Z,990.58
2023-02-26T02:47:44.195Z,990.58
2023-02-26T02:48:44.204Z,990.59
2023-02-26T02:49:44.170Z,990.58
2023-02-26T02:50:44.171Z,990.60
2023-02-26T02:51:44.155Z,990.69
2023-02-26T02:52:44.166Z,990.68
2023-02-26T02:53:44.157Z,990.66
2023-02-26T02:54:44.145Z,990.73
2023-02-26T02:55:44.121Z,990.69
2023-02-26T02:56:44.123Z,990.78
2023-02-26T02:57:44.120Z,990.76
2023-02-26T02:58:44.108Z,990.72
2023-02-26T02:59:44.098Z,990.72
2023-02-26T03:00:44.105Z,990.75
2023-02-26T03:01:44.081Z,990.73
2023-02-26T03:02:44.165Z,990.75
2023-02-26T03:03:44.081Z,990.74
2023-02-26T03:04:44.063Z,990.79
2023-02-26T03:05:44.064Z,990.73
2023-02-26T03:06:44.043Z,990.77
2023-02-26T03:07:44.037Z,990.74
2023-02-26T03:08:44.050Z,990.72
2023-02-26T03:09:44.027Z,990.70
2023-02-26T03:10:44.041Z,990.74
2023-02-26T03:11:44.010Z,990.79
2023-02-26T03:12:43.997Z,990.73
2023-02-26T03:13:43.994Z,990.78
2023-02-26T03:14:44.027Z,990.79
2023-02-26T03:15:43.985Z,990.79
2023-02-26T03:16:44.028Z,990.70
2023-02-26T03:17:43.964Z,990.75
2023-02-26T03:18:43.957Z,990.79
2023-02-26T03:19:43.955Z,990.74
2023-02-26T03:20:43.961Z,990.77
2023-02-26T03:21:43.938Z,990.76
2023-02-26T03:22:43.959Z,990.83
2023-02-26T03:23:43.926Z,990.80
2023-02-26T03:24:43.911Z,990.86
2023-02-26T03:25:43.913Z,990.94
2023-02-26T03:26:43.896Z,990.91
2023-02-26T03:27:43.891Z,990.93
2023-02-26T03:28:43.894Z,990.92
2023-02-26T03:29:43.883Z,990.96
2023-02-26T03:30:44.886Z,990.92
2023-02-26T03:31:43.949Z,990.95
2023-02-26T03:32:43.872Z,990.98
2023-02-26T03:33:43.846Z,991.00
2023-02-26T03:34:43.843Z,991.01
2023-02-26T03:35:43.842Z,991.02
2023-02-26T03:36:43.832Z,991.02
2023-02-26T03:37:43.812Z,991.06
2023-02-26T03:38:43.819Z,991.10
2023-02-26T03:39:43.797Z,991.09
2023-02-26T03:40:43.799Z,991.20
2023-02-26T03:41:43.785Z,991.21
2023-02-26T03:42:43.779Z,991.22
2023-02-26T03:43:43.769Z,991.27
2023-02-26T03:44:44.365Z,991.26
2023-02-26T03:45:43.825Z,991.25
2023-02-26T03:46:43.754Z,991.28
2023-02-26T03:47:43.742Z,991.34
2023-02-26T03:48:43.782Z,991.32
2023-02-26T03:49:43.729Z,991.29
2023-02-26T03:50:43.729Z,991.29
2023-02-26T03:51:43.718Z,991.29
2023-02-26T03:52:43.714Z,991.31
2023-02-26T03:53:43.704Z,991.32
2023-02-26T03:54:43.691Z,991.29
2023-02-26T03:55:43.682Z,991.33
2023-02-26T03:56:43.689Z,991.27
2023-02-26T03:57:43.669Z,991.31
2023-02-26T03:58:43.656Z,991.34
2023-02-26T03:59:43.655Z,991.32
2023-02-26T04:00:43.652Z,991.41
2023-02-26T04:01:43.666Z,991.33
2023-02-26T04:03:00.768Z,991.44
2023-02-26T04:03:45.447Z,991.43
2023-02-26T04:04:49.733Z,991.44
2023-02-26T04:05:43.604Z,991.46
2023-02-26T04:07:03.933Z,991.47
2023-02-26T04:07:43.598Z,991.49
2023-02-26T04:08:43.593Z,991.44
2023-02-26T04:09:51.935Z,991.45
2023-02-26T04:11:15.902Z,991.43
2023-02-26T04:11:43.579Z,991.47
2023-02-26T04:12:47.595Z,991.46
2023-02-26T04:13:43.554Z,991.54
2023-02-26T04:14:43.541Z,991.59
2023-02-26T04:15:43.538Z,991.56
2023-02-26T04:16:43.575Z,991.59
2023-02-26T04:17:43.519Z,991.58
2023-02-26T04:18:43.506Z,991.61
2023-02-26T04:19:43.503Z,991.58
2023-02-26T04:20:43.503Z,991.70
2023-02-26T04:21:43.492Z,991.68
2023-02-26T04:22:43.481Z,991.74
2023-02-26T04:23:43.509Z,991.74
2023-02-26T04:24:43.469Z,991.78
2023-02-26T04:25:43.514Z,991.75
2023-02-26T04:26:43.471Z,991.77
2023-02-26T04:27:43.440Z,991.76
2023-02-26T04:28:43.430Z,991.78
2023-02-26T04:29:43.432Z,991.76
2023-02-26T04:30:43.459Z,991.79
2023-02-26T04:31:43.454Z,991.81
2023-02-26T04:32:43.407Z,991.72
2023-02-26T04:33:43.401Z,991.80
2023-02-26T04:34:43.403Z,991.78
2023-02-26T04:35:43.391Z,991.77
2023-02-26T04:36:43.377Z,991.69
2023-02-26T04:37:43.355Z,991.70
2023-02-26T04:38:43.362Z,991.76
2023-02-26T04:39:43.358Z,991.73
2023-02-26T04:40:43.357Z,991.81
2023-02-26T04:41:43.334Z,991.78
2023-02-26T04:42:43.330Z,991.87
2023-02-26T04:43:43.326Z,991.78
2023-02-26T04:44:43.308Z,991.83
2023-02-26T04:45:43.300Z,991.85
2023-02-26T04:46:43.296Z,991.88
2023-02-26T04:47:43.292Z,991.87
2023-02-26T04:48:43.292Z,991.87
2023-02-26T04:49:43.293Z,991.92
2023-02-26T04:50:43.252Z,991.94
2023-02-26T04:51:43.282Z,991.91
2023-02-26T04:52:43.250Z,991.98
2023-02-26T04:53:43.249Z,992.03
2023-02-26T04:54:43.233Z,992.03
2023-02-26T04:55:43.230Z,992.00
2023-02-26T04:56:43.986Z,992.03
2023-02-26T04:57:43.203Z,991.95
2023-02-26T04:58:43.193Z,991.98
2023-02-26T04:59:43.208Z,991.95
2023-02-26T05:00:43.181Z,992.03
2023-02-26T05:01:43.218Z,991.98
2023-02-26T05:02:43.172Z,992.00
2023-02-26T05:03:43.177Z,992.00
2023-02-26T05:04:43.200Z,992.03
2023-02-26T05:05:43.167Z,992.05
2023-02-26T05:06:43.160Z,992.10
2023-02-26T05:07:43.133Z,992.08
2023-02-26T05:08:43.234Z,992.11
2023-02-26T05:09:43.111Z,992.13
2023-02-26T05:10:43.125Z,992.13
2023-02-26T05:11:43.116Z,992.18
2023-02-26T05:12:43.109Z,992.24
2023-02-26T05:13:43.108Z,992.22
2023-02-26T05:14:43.119Z,992.31
2023-02-26T05:15:43.129Z,992.29
2023-02-26T05:16:43.092Z,992.30
2023-02-26T05:17:43.061Z,992.24
2023-02-26T05:18:43.049Z,992.27
2023-02-26T05:19:43.059Z,992.32
2023-02-26T05:20:43.043Z,992.35
2023-02-26T05:21:43.033Z,992.36
2023-02-26T05:22:43.062Z,992.34
2023-02-26T05:23:43.024Z,992.35
2023-02-26T05:24:43.000Z,992.36
2023-02-26T05:25:42.991Z,992.37
2023-02-26T05:26:42.981Z,992.32
2023-02-26T05:27:43.004Z,992.38
2023-02-26T05:28:42.983Z,992.34
2023-02-26T05:29:42.959Z,992.37
2023-02-26T05:30:42.988Z,992.38
2023-02-26T05:31:43.188Z,992.39
2023-02-26T05:32:42.954Z,992.35
2023-02-26T05:33:42.944Z,992.43
2023-02-26T05:34:43.902Z,992.43
2023-02-26T05:35:42.912Z,992.42
2023-02-26T05:36:42.939Z,992.42
2023-02-26T05:37:42.906Z,992.42
2023-02-26T05:38:42.910Z,992.48
2023-02-26T05:39:42.882Z,992.49
2023-02-26T05:40:42.882Z,992.51
2023-02-26T05:41:42.867Z,992.55
2023-02-26T05:42:42.866Z,992.53
2023-02-26T05:43:42.882Z,992.56
2023-02-26T05:44:42.897Z,992.69
2023-02-26T05:45:42.906Z,992.55
2023-02-26T05:46:42.840Z,992.62
2023-02-26T05:47:42.820Z,992.70
2023-02-26T05:48:45.871Z,992.65
2023-02-26T05:49:42.839Z,992.73
2023-02-26T05:50:42.812Z,992.77
2023-02-26T05:51:42.826Z,992.68
2023-02-26T05:52:42.793Z,992.71
2023-02-26T05:53:42.821Z,992.71
2023-02-26T05:54:42.772Z,992.71
2023-02-26T05:55:42.771Z,992.78
2023-02-26T05:56:42.760Z,992.79
2023-02-26T05:57:42.762Z,992.81
2023-02-26T05:58:42.743Z,992.81
2023-02-26T05:59:42.748Z,992.83
2023-02-26T06:00:42.741Z,992.90
2023-02-26T06:01:42.792Z,992.93
2023-02-26T06:02:42.741Z,992.89
2023-02-26T06:03:42.704Z,992.93
2023-02-26T06:04:42.694Z,993.01
2023-02-26T06:05:42.682Z,993.01
2023-02-26T06:06:42.677Z,993.07
2023-02-26T06:07:42.699Z,993.06
2023-02-26T06:08:42.692Z,993.03
2023-02-26T06:09:42.668Z,993.04
2023-02-26T06:10:42.646Z,993.11
2023-02-26T06:11:42.652Z,993.12
2023-02-26T06:12:42.626Z,993.16
2023-02-26T06:13:42.644Z,993.19
2023-02-26T06:14:42.609Z,993.16
2023-02-26T06:15:42.627Z,993.22
2023-02-26T06:16:42.651Z,993.23
2023-02-26T06:17:42.583Z,993.24
2023-02-26T06:18:42.580Z,993.27
2023-02-26T06:19:42.574Z,993.31
2023-02-26T06:20:42.577Z,993.28
2023-02-26T06:21:42.561Z,993.32
2023-02-26T06:22:42.553Z,993.34
2023-02-26T06:23:42.544Z,993.41
2023-02-26T06:24:43.394Z,993.34
2023-02-26T06:25:42.535Z,993.33
2023-02-26T06:26:42.521Z,993.37
2023-02-26T06:27:42.526Z,993.39
2023-02-26T06:28:42.510Z,993.41
2023-02-26T06:29:42.509Z,993.49
2023-02-26T06:30:42.532Z,993.46
2023-02-26T06:31:42.595Z,993.47
2023-02-26T06:32:42.557Z,993.55
2023-02-26T06:33:42.470Z,993.58
2023-02-26T06:34:42.472Z,993.64
2023-02-26T06:35:42.469Z,993.72
2023-02-26T06:36:42.462Z,993.64
2023-02-26T06:37:42.450Z,993.67
2023-02-26T06:38:42.450Z,993.66
2023-02-26T06:39:42.420Z,993.70
2023-02-26T06:40:43.513Z,993.64
2023-02-26T06:41:42.410Z,993.74
2023-02-26T06:42:42.416Z,993.78
2023-02-26T06:43:42.399Z,993.72
2023-02-26T06:44:42.925Z,993.74
2023-02-26T06:45:42.410Z,993.72
2023-02-26T06:46:42.396Z,993.86
2023-02-26T06:47:42.369Z,993.84
2023-02-26T06:48:42.373Z,993.92
2023-02-26T06:49:42.354Z,993.88
2023-02-26T06:50:42.360Z,993.88
2023-02-26T06:51:42.371Z,993.95
2023-02-26T06:52:42.346Z,993.93
2023-02-26T06:53:42.993Z,994.02
2023-02-26T06:54:42.320Z,994.05
2023-02-26T06:55:42.324Z,994.01
2023-02-26T06:56:42.318Z,994.06
2023-02-26T06:57:42.309Z,994.10
2023-02-26T06:58:42.306Z,994.12
2023-02-26T06:59:42.361Z,994.14
2023-02-26T07:00:42.275Z,994.16
2023-02-26T07:01:42.263Z,994.17
2023-02-26T07:02:42.304Z,994.23
2023-02-26T07:03:42.255Z,994.23
2023-02-26T07:04:42.265Z,994.27
2023-02-26T07:05:42.231Z,994.28
2023-02-26T07:06:42.586Z,994.44
2023-02-26T07:07:42.219Z,994.39
2023-02-26T07:08:42.204Z,994.47
2023-02-26T07:09:45.607Z,994.37
2023-02-26T07:10:42.187Z,994.45
2023-02-26T07:11:42.192Z,994.42
2023-02-26T07:12:42.205Z,994.46
2023-02-26T07:13:42.178Z,994.51
2023-02-26T07:14:42.162Z,994.53
2023-02-26T07:15:42.401Z,994.55
2023-02-26T07:16:42.187Z,994.49
2023-02-26T07:17:42.151Z,994.58
2023-02-26T07:18:42.136Z,994.53
2023-02-26T07:19:42.127Z,994.57
2023-02-26T07:20:42.128Z,994.71
2023-02-26T07:21:42.123Z,994.65
2023-02-26T07:22:42.135Z,994.67
2023-02-26T07:23:42.124Z,994.68
2023-02-26T07:24:42.114Z,994.77
2023-02-26T07:25:42.095Z,994.71
2023-02-26T07:26:42.086Z,994.80
2023-02-26T07:27:43.815Z,994.72
2023-02-26T07:28:43.064Z,994.81
2023-02-26T07:29:42.041Z,994.80
2023-02-26T07:30:42.206Z,994.75
2023-02-26T07:31:42.288Z,994.77
2023-02-26T07:32:42.039Z,994.89
2023-02-26T07:33:42.031Z,994.77
2023-02-26T07:34:42.007Z,994.80
2023-02-26T07:35:41.996Z,994.83
2023-02-26T07:36:42.026Z,994.88
2023-02-26T07:37:41.991Z,994.86
2023-02-26T07:38:41.972Z,994.80
2023-02-26T07:39:41.979Z,994.91
2023-02-26T07:40:41.962Z,994.99
2023-02-26T07:41:41.968Z,994.85
2023-02-26T07:42:41.944Z,994.92
2023-02-26T07:43:41.944Z,994.95
2023-02-26T07:44:41.929Z,994.97
2023-02-26T07:45:41.949Z,995.07
2023-02-26T07:46:41.909Z,994.93
2023-02-26T07:47:41.963Z,994.99
2023-02-26T07:48:41.887Z,995.12
2023-02-26T07:49:41.902Z,995.13
2023-02-26T07:50:41.877Z,995.07
2023-02-26T07:51:41.882Z,995.13
2023-02-26T07:52:41.937Z,995.07
2023-02-26T07:53:41.863Z,995.19
2023-02-26T07:54:41.845Z,995.14
2023-02-26T07:55:41.833Z,995.17
2023-02-26T07:56:41.833Z,995.14
2023-02-26T07:57:41.843Z,995.09
2023-02-26T07:58:41.818Z,995.24
2023-02-26T07:59:41.827Z,995.23
2023-02-26T08:00:41.811Z,995.10
2023-02-26T08:01:41.836Z,995.08
2023-02-26T08:02:41.780Z,995.10
2023-02-26T08:03:41.803Z,995.16
2023-02-26T08:04:41.761Z,995.29
2023-02-26T08:05:41.772Z,995.14
2023-02-26T08:06:41.751Z,995.35
2023-02-26T08:07:41.756Z,995.34
2023-02-26T08:08:41.768Z,995.29
2023-02-26T08:09:41.718Z,995.23
2023-02-26T08:10:42.221Z,995.33
2023-02-26T08:11:42.756Z,995.25
2023-02-26T08:12:42.405Z,995.32
2023-02-26T08:13:41.695Z,995.31
2023-02-26T08:14:41.733Z,995.31
2023-02-26T08:15:42.547Z,995.28
2023-02-26T08:16:41.675Z,995.33
2023-02-26T08:17:41.705Z,995.46
2023-02-26T08:18:41.652Z,995.35
2023-02-26T08:19:41.654Z,995.36
2023-02-26T08:20:41.640Z,995.38
2023-02-26T08:21:41.621Z,995.38
2023-02-26T08:22:41.615Z,995.40
2023-02-26T08:23:41.623Z,995.40
2023-02-26T08:24:41.593Z,995.41
2023-02-26T08:25:42.596Z,995.42
2023-02-26T08:26:41.594Z,995.48
2023-02-26T08:27:41.579Z,995.45
2023-02-26T08:28:41.590Z,995.53
2023-02-26T08:29:41.593Z,995.53
2023-02-26T08:30:41.604Z,995.49
2023-02-26T08:31:41.790Z,995.45
2023-02-26T08:32:41.590Z,995.52
2023-02-26T08:33:41.531Z,995.51
2023-02-26T08:34:41.537Z,995.54
2023-02-26T08:35:41.508Z,995.54
2023-02-26T08:36:41.507Z,995.60
2023-02-26T08:37:41.495Z,995.65
2023-02-26T08:38:41.506Z,995.72
2023-02-26T08:39:41.473Z,995.69
2023-02-26T08:40:41.498Z,995.68
2023-02-26T08:41:41.460Z,995.78
2023-02-26T08:42:41.464Z,995.72
2023-02-26T08:43:41.456Z,995.65
2023-02-26T08:44:41.443Z,995.78
2023-02-26T08:45:41.435Z,995.75
2023-02-26T08:46:41.506Z,995.78
2023-02-26T08:47:53.891Z,995.72
2023-02-26T08:48:43.415Z,995.83
2023-02-26T08:49:42.002Z,995.74
2023-02-26T08:50:41.394Z,995.82
2023-02-26T08:51:41.393Z,995.87
2023-02-26T08:52:41.399Z,995.82
2023-02-26T08:53:41.404Z,995.90
2023-02-26T08:54:41.400Z,996.03
2023-02-26T08:55:41.374Z,995.96
2023-02-26T08:56:41.349Z,995.93
2023-02-26T08:57:41.993Z,995.94
2023-02-26T08:58:41.350Z,996.04
2023-02-26T08:59:41.346Z,995.93
2023-02-26T09:00:41.331Z,995.95
2023-02-26T09:01:41.383Z,996.03
2023-02-26T09:02:41.394Z,996.13
2023-02-26T09:03:41.299Z,996.04
2023-02-26T09:04:42.005Z,996.10
2023-02-26T09:05:41.296Z,996.10
2023-02-26T09:06:41.277Z,996.17
2023-02-26T09:07:41.266Z,996.12
2023-02-26T09:08:41.264Z,996.20
2023-02-26T09:09:41.298Z,996.19
2023-02-26T09:10:41.331Z,996.15
2023-02-26T09:11:42.016Z,996.24
2023-02-26T09:12:41.238Z,996.21
2023-02-26T09:13:41.259Z,996.24
2023-02-26T09:14:41.246Z,996.15
2023-02-26T09:15:41.210Z,996.26
2023-02-26T09:16:42.010Z,996.16
2023-02-26T09:17:41.194Z,996.17
2023-02-26T09:18:41.203Z,996.19
2023-02-26T09:19:41.205Z,996.26
2023-02-26T09:20:41.181Z,996.21
2023-02-26T09:21:41.166Z,996.27
2023-02-26T09:22:41.169Z,996.20
2023-02-26T09:23:41.157Z,996.23
2023-02-26T09:24:41.542Z,996.26
2023-02-26T09:25:41.140Z,996.43
2023-02-26T09:26:41.130Z,996.36
2023-02-26T09:27:41.151Z,996.49
2023-02-26T09:28:41.154Z,996.38
2023-02-26T09:29:41.121Z,996.38
2023-02-26T09:30:41.101Z,996.41
2023-02-26T09:31:41.324Z,996.44
2023-02-26T09:32:41.138Z,996.40
2023-02-26T09:33:41.079Z,996.40
2023-02-26T09:34:41.078Z,996.36
2023-02-26T09:35:41.922Z,996.45
2023-02-26T09:36:41.049Z,996.38
2023-02-26T09:37:41.058Z,996.39
2023-02-26T09:38:42.037Z,996.49
2023-02-26T09:39:41.046Z,996.41
2023-02-26T09:40:41.021Z,996.30
2023-02-26T09:41:41.090Z,996.27
2023-02-26T09:42:41.009Z,996.34
2023-02-26T09:43:40.992Z,996.39
2023-02-26T09:44:40.996Z,996.45
2023-02-26T09:45:43.553Z,996.63
2023-02-26T09:46:40.992Z,996.48
2023-02-26T09:47:41.551Z,996.56
2023-02-26T09:48:40.971Z,996.57
2023-02-26T09:49:41.011Z,996.49
2023-02-26T09:50:40.947Z,996.53
2023-02-26T09:51:40.945Z,996.53
2023-02-26T09:52:40.944Z,996.61
2023-02-26T09:53:40.944Z,996.68
2023-02-26T09:54:41.507Z,996.64
2023-02-26T09:55:40.973Z,996.60
2023-02-26T09:56:40.924Z,996.61
2023-02-26T09:57:41.433Z,996.57
2023-02-26T09:58:40.887Z,996.58
2023-02-26T09:59:40.886Z,996.57
2023-02-26T10:00:40.875Z,996.65
2023-02-26T10:01:40.930Z,996.61
2023-02-26T10:02:40.916Z,996.70
2023-02-26T10:03:40.890Z,996.79
2023-02-26T10:04:40.843Z,996.72
2023-02-26T10:05:40.844Z,996.75
2023-02-26T10:06:40.832Z,996.80
2023-02-26T10:07:40.815Z,996.75
2023-02-26T10:08:41.261Z,996.84
2023-02-26T10:09:40.847Z,996.81
2023-02-26T10:10:41.515Z,996.90
2023-02-26T10:11:40.811Z,996.86
2023-02-26T10:12:40.774Z,996.89
2023-02-26T10:13:56.199Z,996.87
2023-02-26T10:14:42.850Z,996.94
2023-02-26T10:15:40.782Z,996.96
2023-02-26T10:16:40.869Z,997.01
2023-02-26T10:17:40.773Z,997.02
2023-02-26T10:18:40.768Z,997.00
2023-02-26T10:19:40.734Z,997.18
2023-02-26T10:20:40.859Z,997.12
2023-02-26T10:21:40.735Z,997.13
2023-02-26T10:22:40.730Z,997.10
2023-02-26T10:23:43.340Z,997.33
2023-02-26T10:24:40.685Z,997.23
2023-02-26T10:25:40.686Z,997.09
2023-02-26T10:26:40.704Z,997.16
2023-02-26T10:27:40.667Z,997.12
2023-02-26T10:28:40.665Z,997.15
2023-02-26T10:29:40.685Z,997.06
2023-02-26T10:30:40.689Z,997.12
2023-02-26T10:31:40.759Z,997.25
2023-02-26T10:32:40.869Z,997.17
2023-02-26T10:33:40.655Z,997.21
2023-02-26T10:34:41.569Z,997.11
2023-02-26T10:35:40.594Z,997.16
2023-02-26T10:36:41.420Z,997.23
2023-02-26T10:37:40.603Z,997.20
2023-02-26T10:38:40.613Z,997.19
2023-02-26T10:39:40.573Z,997.29
2023-02-26T10:40:40.624Z,997.31
2023-02-26T10:41:41.514Z,997.33
2023-02-26T10:42:40.545Z,997.28
2023-02-26T10:43:40.540Z,997.36
2023-02-26T10:44:40.536Z,997.30
2023-02-26T10:45:40.554Z,997.24
2023-02-26T10:46:40.543Z,997.26
2023-02-26T10:47:44.171Z,997.29
2023-02-26T10:48:41.020Z,997.23
2023-02-26T10:49:40.478Z,997.24
2023-02-26T10:50:40.488Z,997.22
2023-02-26T10:51:40.589Z,997.36
2023-02-26T10:52:40.466Z,997.35
2023-02-26T10:53:40.845Z,997.42
2023-02-26T10:54:41.438Z,997.37
2023-02-26T10:55:40.433Z,997.45
2023-02-26T10:56:40.681Z,997.34
2023-02-26T10:57:40.417Z,997.40
2023-02-26T10:58:41.051Z,997.41
2023-02-26T10:59:40.410Z,997.44
2023-02-26T11:00:41.404Z,997.49
2023-02-26T11:01:40.444Z,997.51
2023-02-26T11:02:41.494Z,997.51
2023-02-26T11:03:41.052Z,997.52
2023-02-26T11:04:40.391Z,997.37
2023-02-26T11:05:41.097Z,997.40
2023-02-26T11:06:41.151Z,997.38
2023-02-26T11:07:40.937Z,997.43
2023-02-26T11:08:40.353Z,997.39
2023-02-26T11:09:40.359Z,997.40
2023-02-26T11:10:40.619Z,997.37
2023-02-26T11:11:40.955Z,997.31
2023-02-26T11:12:40.315Z,997.38
2023-02-26T11:13:40.940Z,997.45
2023-02-26T11:14:40.296Z,997.39
2023-02-26T11:15:40.326Z,997.42
2023-02-26T11:16:41.038Z,997.40
2023-02-26T11:17:40.294Z,997.34
2023-02-26T11:18:40.287Z,997.40
2023-02-26T11:19:40.279Z,997.34
2023-02-26T11:20:40.259Z,997.30
2023-02-26T11:21:40.250Z,997.29
2023-02-26T11:22:40.237Z,997.28
2023-02-26T11:23:40.254Z,997.35
2023-02-26T11:24:40.929Z,997.43
2023-02-26T11:25:40.215Z,997.35
2023-02-26T11:26:40.177Z,997.39
2023-02-26T11:27:41.250Z,997.39
2023-02-26T11:28:40.216Z,997.37
2023-02-26T11:29:40.186Z,997.41
2023-02-26T11:30:40.230Z,997.32
2023-02-26T11:31:42.028Z,997.44
2023-02-26T11:32:41.600Z,997.30
2023-02-26T11:33:40.144Z,997.34
2023-02-26T11:34:40.137Z,997.40
2023-02-26T11:35:40.160Z,997.49
2023-02-26T11:36:40.173Z,997.45
2023-02-26T11:37:40.127Z,997.44
2023-02-26T11:38:40.107Z,997.54
2023-02-26T11:39:40.112Z,997.53
2023-02-26T11:40:40.156Z,997.47
2023-02-26T11:41:40.110Z,997.52
2023-02-26T11:42:40.069Z,997.47
2023-02-26T11:43:40.106Z,997.44
2023-02-26T11:44:40.065Z,997.45
2023-02-26T11:45:40.074Z,997.49
2023-02-26T11:46:40.047Z,997.45
2023-02-26T11:47:40.033Z,997.47
2023-02-26T11:48:40.032Z,997.46
2023-02-26T11:49:40.030Z,997.46
2023-02-26T11:50:42.183Z,997.50
2023-02-26T11:51:40.027Z,997.53
2023-02-26T11:52:40.009Z,997.47
2023-02-26T11:53:40.909Z,997.55
2023-02-26T11:54:39.977Z,997.45
2023-02-26T11:55:40.027Z,997.41
2023-02-26T11:56:39.968Z,997.40
2023-02-26T11:57:39.964Z,997.42
2023-02-26T11:58:39.955Z,997.47
2023-02-26T11:59:39.948Z,997.40
2023-02-26T12:00:39.928Z,997.46
2023-02-26T12:01:39.944Z,997.41
2023-02-26T12:02:39.928Z,997.45
2023-02-26T12:03:40.059Z,997.61
2023-02-26T12:04:39.932Z,997.45
2023-02-26T12:05:39.888Z,997.42
2023-02-26T12:06:39.895Z,997.55
2023-02-26T12:07:39.883Z,997.49
2023-02-26T12:08:39.856Z,997.49
2023-02-26T12:09:40.853Z,997.55
2023-02-26T12:10:39.850Z,997.35
2023-02-26T12:11:39.846Z,997.42
2023-02-26T12:12:39.844Z,997.45
2023-02-26T12:13:39.856Z,997.36
2023-02-26T12:14:39.826Z,997.44
2023-02-26T12:15:39.811Z,997.51
2023-02-26T12:16:40.836Z,997.36
2023-02-26T12:17:39.787Z,997.54
2023-02-26T12:18:39.820Z,997.35
2023-02-26T12:19:39.786Z,997.32
2023-02-26T12:20:39.786Z,997.32
2023-02-26T12:21:39.775Z,997.42
2023-02-26T12:22:39.782Z,997.52
2023-02-26T12:23:39.753Z,997.38
2023-02-26T12:24:39.814Z,997.43
2023-02-26T12:25:39.731Z,997.35
2023-02-26T12:26:39.741Z,997.44
2023-02-26T12:27:39.714Z,997.43
2023-02-26T12:28:39.702Z,997.37
2023-02-26T12:29:39.709Z,997.37